sensor_id;sensor_type;location;lat;lon;timestamp;P1;durP1;ratioP1;P2;durP2;ratioP2
7541;SDS011;3812;50.006;8.230;2022-07-23T00:00:12;6.20;;;4.40;;
7541;SDS011;3812;50.006;8.230;2022-07-23T00:02:39;7.07;;;4.80;;
7541;SDS011;3812;50.006;8.230;2022-07-23T00:05:07;6.47;;;4.50;;
7541;SDS011;3812;50.006;8.230;2022-07-23T00:07:34;7.00;;;4.97;;
7541;SDS011;3812;50.006;8.230;2022-07-23T00:10:03;6.53;;;4.90;;
7541;SDS011;3812;50.006;8.230;2022-07-23T00:12:30;5.30;;;4.80;;
7541;SDS011;3812;50.006;8.230;2022-07-23T00:14:57;5.43;;;4.70;;
7541;SDS011;3812;50.006;8.230;2022-07-23T00:17:24;6.27;;;5.03;;
7541;SDS011;3812;50.006;8.230;2022-07-23T00:19:51;5.60;;;4.53;;
7541;SDS011;3812;50.006;8.230;2022-07-23T00:22:19;5.73;;;4.80;;
7541;SDS011;3812;50.006;8.230;2022-07-23T00:24:46;8.00;;;4.73;;
7541;SDS011;3812;50.006;8.230;2022-07-23T00:27:14;8.43;;;5.03;;
7541;SDS011;3812;50.006;8.230;2022-07-23T00:29:41;7.53;;;4.73;;
7541;SDS011;3812;50.006;8.230;2022-07-23T00:32:08;5.83;;;4.50;;
7541;SDS011;3812;50.006;8.230;2022-07-23T00:34:35;7.70;;;5.00;;
7541;SDS011;3812;50.006;8.230;2022-07-23T00:37:02;6.13;;;5.03;;
7541;SDS011;3812;50.006;8.230;2022-07-23T00:39:29;5.77;;;5.17;;
7541;SDS011;3812;50.006;8.230;2022-07-23T00:41:56;7.10;;;4.93;;
7541;SDS011;3812;50.006;8.230;2022-07-23T00:44:25;6.87;;;4.87;;
7541;SDS011;3812;50.006;8.230;2022-07-23T00:46:54;8.03;;;5.47;;
7541;SDS011;3812;50.006;8.230;2022-07-23T00:49:23;6.27;;;4.73;;
7541;SDS011;3812;50.006;8.230;2022-07-23T00:51:51;5.40;;;4.60;;
7541;SDS011;3812;50.006;8.230;2022-07-23T00:54:19;6.03;;;5.00;;
7541;SDS011;3812;50.006;8.230;2022-07-23T00:56:47;7.10;;;5.40;;
7541;SDS011;3812;50.006;8.230;2022-07-23T00:59:14;6.27;;;5.13;;
7541;SDS011;3812;50.006;8.230;2022-07-23T01:01:43;6.20;;;5.00;;
7541;SDS011;3812;50.006;8.230;2022-07-23T01:04:13;7.67;;;5.17;;
7541;SDS011;3812;50.006;8.230;2022-07-23T01:06:40;7.47;;;5.13;;
7541;SDS011;3812;50.006;8.230;2022-07-23T01:09:09;7.67;;;5.07;;
7541;SDS011;3812;50.006;8.230;2022-07-23T01:11:36;5.60;;;4.53;;
7541;SDS011;3812;50.006;8.230;2022-07-23T01:14:09;6.30;;;4.93;;
7541;SDS011;3812;50.006;8.230;2022-07-23T01:16:37;8.73;;;5.33;;
7541;SDS011;3812;50.006;8.230;2022-07-23T01:19:06;6.63;;;5.67;;
7541;SDS011;3812;50.006;8.230;2022-07-23T01:21:34;6.67;;;5.77;;
7541;SDS011;3812;50.006;8.230;2022-07-23T01:24:04;7.90;;;5.60;;
7541;SDS011;3812;50.006;8.230;2022-07-23T01:26:35;9.30;;;5.43;;
7541;SDS011;3812;50.006;8.230;2022-07-23T01:29:03;6.87;;;6.00;;
7541;SDS011;3812;50.006;8.230;2022-07-23T01:31:31;8.40;;;6.50;;
7541;SDS011;3812;50.006;8.230;2022-07-23T01:33:58;7.60;;;5.83;;
7541;SDS011;3812;50.006;8.230;2022-07-23T01:36:25;7.67;;;6.30;;
7541;SDS011;3812;50.006;8.230;2022-07-23T01:38:53;8.10;;;6.03;;
7541;SDS011;3812;50.006;8.230;2022-07-23T01:41:22;8.73;;;6.67;;
7541;SDS011;3812;50.006;8.230;2022-07-23T01:43:49;8.23;;;6.20;;
7541;SDS011;3812;50.006;8.230;2022-07-23T01:46:17;6.50;;;5.80;;
7541;SDS011;3812;50.006;8.230;2022-07-23T01:48:47;7.30;;;5.43;;
7541;SDS011;3812;50.006;8.230;2022-07-23T01:51:33;9.97;;;6.47;;
7541;SDS011;3812;50.006;8.230;2022-07-23T01:54:07;7.47;;;6.20;;
7541;SDS011;3812;50.006;8.230;2022-07-23T01:56:35;7.93;;;6.37;;
7541;SDS011;3812;50.006;8.230;2022-07-23T01:59:02;7.40;;;6.30;;
7541;SDS011;3812;50.006;8.230;2022-07-23T02:01:29;7.87;;;6.33;;
7541;SDS011;3812;50.006;8.230;2022-07-23T02:03:56;8.20;;;6.33;;
7541;SDS011;3812;50.006;8.230;2022-07-23T02:06:24;7.17;;;5.37;;
7541;SDS011;3812;50.006;8.230;2022-07-23T02:08:51;9.47;;;6.87;;
7541;SDS011;3812;50.006;8.230;2022-07-23T02:11:17;8.40;;;6.33;;
7541;SDS011;3812;50.006;8.230;2022-07-23T02:13:46;10.77;;;6.40;;
7541;SDS011;3812;50.006;8.230;2022-07-23T02:16:12;8.43;;;6.70;;
7541;SDS011;3812;50.006;8.230;2022-07-23T02:18:39;6.90;;;6.20;;
7541;SDS011;3812;50.006;8.230;2022-07-23T02:21:06;7.80;;;6.10;;
7541;SDS011;3812;50.006;8.230;2022-07-23T02:23:33;7.67;;;6.00;;
7541;SDS011;3812;50.006;8.230;2022-07-23T02:26:00;9.07;;;6.57;;
7541;SDS011;3812;50.006;8.230;2022-07-23T02:28:28;7.57;;;6.13;;
7541;SDS011;3812;50.006;8.230;2022-07-23T02:30:57;10.50;;;6.50;;
7541;SDS011;3812;50.006;8.230;2022-07-23T02:33:24;6.93;;;6.07;;
7541;SDS011;3812;50.006;8.230;2022-07-23T02:35:51;8.20;;;6.30;;
7541;SDS011;3812;50.006;8.230;2022-07-23T02:38:19;7.07;;;6.37;;
7541;SDS011;3812;50.006;8.230;2022-07-23T02:40:46;8.53;;;6.10;;
7541;SDS011;3812;50.006;8.230;2022-07-23T02:43:13;9.40;;;6.37;;
7541;SDS011;3812;50.006;8.230;2022-07-23T02:45:40;9.50;;;6.60;;
7541;SDS011;3812;50.006;8.230;2022-07-23T02:48:09;8.20;;;6.27;;
7541;SDS011;3812;50.006;8.230;2022-07-23T02:50:38;8.90;;;6.43;;
7541;SDS011;3812;50.006;8.230;2022-07-23T02:53:05;10.07;;;6.70;;
7541;SDS011;3812;50.006;8.230;2022-07-23T02:55:32;9.33;;;6.20;;
7541;SDS011;3812;50.006;8.230;2022-07-23T02:58:01;7.73;;;6.30;;
7541;SDS011;3812;50.006;8.230;2022-07-23T03:00:27;8.50;;;6.37;;
7541;SDS011;3812;50.006;8.230;2022-07-23T03:02:54;7.40;;;6.47;;
7541;SDS011;3812;50.006;8.230;2022-07-23T03:05:23;8.47;;;6.90;;
7541;SDS011;3812;50.006;8.230;2022-07-23T03:07:50;9.90;;;7.13;;
7541;SDS011;3812;50.006;8.230;2022-07-23T03:10:17;10.90;;;7.00;;
7541;SDS011;3812;50.006;8.230;2022-07-23T03:12:44;7.67;;;6.50;;
7541;SDS011;3812;50.006;8.230;2022-07-23T03:15:10;7.90;;;6.30;;
7541;SDS011;3812;50.006;8.230;2022-07-23T03:17:37;8.17;;;6.53;;
7541;SDS011;3812;50.006;8.230;2022-07-23T03:20:05;7.37;;;5.90;;
7541;SDS011;3812;50.006;8.230;2022-07-23T03:22:34;7.57;;;6.47;;
7541;SDS011;3812;50.006;8.230;2022-07-23T03:25:02;8.50;;;6.57;;
7541;SDS011;3812;50.006;8.230;2022-07-23T03:27:33;9.80;;;6.93;;
7541;SDS011;3812;50.006;8.230;2022-07-23T03:30:00;7.80;;;5.80;;
7541;SDS011;3812;50.006;8.230;2022-07-23T03:32:28;9.17;;;6.63;;
7541;SDS011;3812;50.006;8.230;2022-07-23T03:34:56;10.23;;;6.57;;
7541;SDS011;3812;50.006;8.230;2022-07-23T03:37:23;11.33;;;6.97;;
7541;SDS011;3812;50.006;8.230;2022-07-23T03:39:52;12.47;;;7.57;;
7541;SDS011;3812;50.006;8.230;2022-07-23T03:42:19;11.80;;;7.07;;
7541;SDS011;3812;50.006;8.230;2022-07-23T03:44:46;12.63;;;7.60;;
7541;SDS011;3812;50.006;8.230;2022-07-23T03:47:12;11.63;;;7.43;;
7541;SDS011;3812;50.006;8.230;2022-07-23T03:49:40;14.70;;;7.30;;
7541;SDS011;3812;50.006;8.230;2022-07-23T03:52:08;12.87;;;7.30;;
7541;SDS011;3812;50.006;8.230;2022-07-23T03:54:34;11.30;;;7.10;;
7541;SDS011;3812;50.006;8.230;2022-07-23T03:57:03;11.30;;;6.97;;
7541;SDS011;3812;50.006;8.230;2022-07-23T03:59:30;9.90;;;6.67;;
7541;SDS011;3812;50.006;8.230;2022-07-23T04:01:58;8.20;;;6.60;;
7541;SDS011;3812;50.006;8.230;2022-07-23T04:04:25;9.53;;;6.80;;
7541;SDS011;3812;50.006;8.230;2022-07-23T04:06:52;10.07;;;6.63;;
7541;SDS011;3812;50.006;8.230;2022-07-23T04:09:19;10.30;;;6.80;;
7541;SDS011;3812;50.006;8.230;2022-07-23T04:11:46;8.70;;;7.03;;
7541;SDS011;3812;50.006;8.230;2022-07-23T04:14:14;9.67;;;7.20;;
7541;SDS011;3812;50.006;8.230;2022-07-23T04:16:41;8.80;;;6.90;;
7541;SDS011;3812;50.006;8.230;2022-07-23T04:19:09;9.17;;;6.80;;
7541;SDS011;3812;50.006;8.230;2022-07-23T04:21:48;8.23;;;6.90;;
7541;SDS011;3812;50.006;8.230;2022-07-23T04:24:15;9.27;;;7.17;;
7541;SDS011;3812;50.006;8.230;2022-07-23T04:26:42;10.30;;;7.00;;
7541;SDS011;3812;50.006;8.230;2022-07-23T04:29:09;9.13;;;7.00;;
7541;SDS011;3812;50.006;8.230;2022-07-23T04:31:38;9.30;;;7.00;;
7541;SDS011;3812;50.006;8.230;2022-07-23T04:34:05;9.23;;;6.53;;
7541;SDS011;3812;50.006;8.230;2022-07-23T04:36:32;12.30;;;7.83;;
7541;SDS011;3812;50.006;8.230;2022-07-23T04:38:59;9.90;;;7.33;;
7541;SDS011;3812;50.006;8.230;2022-07-23T04:41:26;9.47;;;7.10;;
7541;SDS011;3812;50.006;8.230;2022-07-23T04:43:53;9.37;;;7.47;;
7541;SDS011;3812;50.006;8.230;2022-07-23T04:46:20;9.67;;;7.93;;
7541;SDS011;3812;50.006;8.230;2022-07-23T04:48:51;11.67;;;7.80;;
7541;SDS011;3812;50.006;8.230;2022-07-23T04:51:18;8.60;;;7.60;;
7541;SDS011;3812;50.006;8.230;2022-07-23T04:53:45;10.87;;;7.90;;
7541;SDS011;3812;50.006;8.230;2022-07-23T04:56:12;11.13;;;8.40;;
7541;SDS011;3812;50.006;8.230;2022-07-23T04:58:39;9.43;;;7.33;;
7541;SDS011;3812;50.006;8.230;2022-07-23T05:01:06;10.73;;;8.07;;
7541;SDS011;3812;50.006;8.230;2022-07-23T05:03:34;9.87;;;7.70;;
7541;SDS011;3812;50.006;8.230;2022-07-23T05:06:03;9.07;;;7.63;;
7541;SDS011;3812;50.006;8.230;2022-07-23T05:08:30;13.07;;;8.47;;
7541;SDS011;3812;50.006;8.230;2022-07-23T05:10:58;8.70;;;7.67;;
7541;SDS011;3812;50.006;8.230;2022-07-23T05:13:24;10.63;;;8.03;;
7541;SDS011;3812;50.006;8.230;2022-07-23T05:15:52;9.73;;;8.23;;
7541;SDS011;3812;50.006;8.230;2022-07-23T05:18:20;10.27;;;7.97;;
7541;SDS011;3812;50.006;8.230;2022-07-23T05:20:47;10.47;;;8.13;;
7541;SDS011;3812;50.006;8.230;2022-07-23T05:23:19;10.20;;;8.37;;
7541;SDS011;3812;50.006;8.230;2022-07-23T05:25:47;13.43;;;8.67;;
7541;SDS011;3812;50.006;8.230;2022-07-23T05:28:15;11.57;;;9.00;;
7541;SDS011;3812;50.006;8.230;2022-07-23T05:30:42;16.67;;;9.23;;
7541;SDS011;3812;50.006;8.230;2022-07-23T05:33:12;11.57;;;8.27;;
7541;SDS011;3812;50.006;8.230;2022-07-23T05:35:40;12.17;;;8.67;;
7541;SDS011;3812;50.006;8.230;2022-07-23T05:38:29;12.80;;;8.43;;
7541;SDS011;3812;50.006;8.230;2022-07-23T05:40:58;13.90;;;9.60;;
7541;SDS011;3812;50.006;8.230;2022-07-23T05:43:26;12.83;;;9.20;;
7541;SDS011;3812;50.006;8.230;2022-07-23T05:45:53;11.70;;;8.87;;
7541;SDS011;3812;50.006;8.230;2022-07-23T05:48:21;12.00;;;8.77;;
7541;SDS011;3812;50.006;8.230;2022-07-23T05:50:57;12.97;;;8.20;;
7541;SDS011;3812;50.006;8.230;2022-07-23T05:53:31;13.10;;;9.03;;
7541;SDS011;3812;50.006;8.230;2022-07-23T05:56:00;10.67;;;8.30;;
7541;SDS011;3812;50.006;8.230;2022-07-23T05:58:29;12.90;;;9.87;;
7541;SDS011;3812;50.006;8.230;2022-07-23T06:00:56;13.47;;;9.33;;
7541;SDS011;3812;50.006;8.230;2022-07-23T06:03:23;12.40;;;9.07;;
7541;SDS011;3812;50.006;8.230;2022-07-23T06:05:51;11.37;;;8.43;;
7541;SDS011;3812;50.006;8.230;2022-07-23T06:08:18;10.37;;;8.10;;
7541;SDS011;3812;50.006;8.230;2022-07-23T06:10:46;10.73;;;8.93;;
7541;SDS011;3812;50.006;8.230;2022-07-23T06:13:14;12.50;;;8.37;;
7541;SDS011;3812;50.006;8.230;2022-07-23T06:15:41;10.93;;;7.97;;
7541;SDS011;3812;50.006;8.230;2022-07-23T06:18:08;9.73;;;7.27;;
7541;SDS011;3812;50.006;8.230;2022-07-23T06:20:37;9.90;;;7.30;;
7541;SDS011;3812;50.006;8.230;2022-07-23T06:23:04;7.97;;;6.80;;
7541;SDS011;3812;50.006;8.230;2022-07-23T06:25:31;9.97;;;7.50;;
7541;SDS011;3812;50.006;8.230;2022-07-23T06:28:00;10.73;;;7.50;;
7541;SDS011;3812;50.006;8.230;2022-07-23T06:30:27;9.77;;;7.13;;
7541;SDS011;3812;50.006;8.230;2022-07-23T06:32:54;9.67;;;7.43;;
7541;SDS011;3812;50.006;8.230;2022-07-23T06:35:20;8.60;;;6.53;;
7541;SDS011;3812;50.006;8.230;2022-07-23T06:37:47;8.17;;;6.70;;
7541;SDS011;3812;50.006;8.230;2022-07-23T06:40:15;9.53;;;6.30;;
7541;SDS011;3812;50.006;8.230;2022-07-23T06:42:42;9.50;;;6.40;;
7541;SDS011;3812;50.006;8.230;2022-07-23T06:45:16;8.73;;;6.23;;
7541;SDS011;3812;50.006;8.230;2022-07-23T06:47:43;7.50;;;5.80;;
7541;SDS011;3812;50.006;8.230;2022-07-23T06:50:10;8.23;;;6.40;;
7541;SDS011;3812;50.006;8.230;2022-07-23T06:52:37;7.47;;;5.80;;
7541;SDS011;3812;50.006;8.230;2022-07-23T06:55:05;8.00;;;5.90;;
7541;SDS011;3812;50.006;8.230;2022-07-23T06:57:32;8.37;;;5.77;;
7541;SDS011;3812;50.006;8.230;2022-07-23T06:59:59;7.03;;;5.63;;
7541;SDS011;3812;50.006;8.230;2022-07-23T07:02:27;6.73;;;5.60;;
7541;SDS011;3812;50.006;8.230;2022-07-23T07:04:54;9.67;;;5.77;;
7541;SDS011;3812;50.006;8.230;2022-07-23T07:07:22;6.87;;;5.50;;
7541;SDS011;3812;50.006;8.230;2022-07-23T07:09:49;8.33;;;6.10;;
7541;SDS011;3812;50.006;8.230;2022-07-23T07:12:16;6.43;;;5.47;;
7541;SDS011;3812;50.006;8.230;2022-07-23T07:14:42;8.03;;;5.77;;
7541;SDS011;3812;50.006;8.230;2022-07-23T07:17:09;6.33;;;5.40;;
7541;SDS011;3812;50.006;8.230;2022-07-23T07:19:38;6.17;;;5.57;;
7541;SDS011;3812;50.006;8.230;2022-07-23T07:22:05;7.07;;;6.33;;
7541;SDS011;3812;50.006;8.230;2022-07-23T07:24:32;7.37;;;6.20;;
7541;SDS011;3812;50.006;8.230;2022-07-23T07:26:58;8.23;;;5.77;;
7541;SDS011;3812;50.006;8.230;2022-07-23T07:29:25;7.63;;;6.20;;
7541;SDS011;3812;50.006;8.230;2022-07-23T07:31:53;8.03;;;6.00;;
7541;SDS011;3812;50.006;8.230;2022-07-23T07:34:20;10.03;;;6.20;;
7541;SDS011;3812;50.006;8.230;2022-07-23T07:36:48;8.07;;;6.33;;
7541;SDS011;3812;50.006;8.230;2022-07-23T07:39:15;7.63;;;6.73;;
7541;SDS011;3812;50.006;8.230;2022-07-23T07:41:42;6.77;;;5.87;;
7541;SDS011;3812;50.006;8.230;2022-07-23T07:44:09;9.10;;;6.20;;
7541;SDS011;3812;50.006;8.230;2022-07-23T07:46:36;7.07;;;6.03;;
7541;SDS011;3812;50.006;8.230;2022-07-23T07:49:03;9.00;;;6.33;;
7541;SDS011;3812;50.006;8.230;2022-07-23T07:51:30;7.67;;;5.90;;
7541;SDS011;3812;50.006;8.230;2022-07-23T07:53:59;8.70;;;6.07;;
7541;SDS011;3812;50.006;8.230;2022-07-23T07:56:26;8.00;;;5.40;;
7541;SDS011;3812;50.006;8.230;2022-07-23T07:58:53;7.70;;;5.70;;
7541;SDS011;3812;50.006;8.230;2022-07-23T08:01:20;8.33;;;6.13;;
7541;SDS011;3812;50.006;8.230;2022-07-23T08:03:47;7.33;;;6.07;;
7541;SDS011;3812;50.006;8.230;2022-07-23T08:06:14;12.07;;;6.30;;
7541;SDS011;3812;50.006;8.230;2022-07-23T08:08:41;6.07;;;5.47;;
7541;SDS011;3812;50.006;8.230;2022-07-23T08:11:09;7.73;;;5.93;;
7541;SDS011;3812;50.006;8.230;2022-07-23T08:13:36;5.67;;;4.60;;
7541;SDS011;3812;50.006;8.230;2022-07-23T08:16:03;5.67;;;5.13;;
7541;SDS011;3812;50.006;8.230;2022-07-23T08:18:30;7.20;;;5.20;;
7541;SDS011;3812;50.006;8.230;2022-07-23T08:20:57;7.30;;;5.30;;
7541;SDS011;3812;50.006;8.230;2022-07-23T08:23:24;6.80;;;5.33;;
7541;SDS011;3812;50.006;8.230;2022-07-23T08:25:52;6.23;;;5.63;;
7541;SDS011;3812;50.006;8.230;2022-07-23T08:28:20;9.67;;;5.73;;
7541;SDS011;3812;50.006;8.230;2022-07-23T08:30:47;6.95;;;5.00;;
7541;SDS011;3812;50.006;8.230;2022-07-23T08:33:14;5.90;;;4.90;;
7541;SDS011;3812;50.006;8.230;2022-07-23T08:35:43;5.90;;;4.70;;
7541;SDS011;3812;50.006;8.230;2022-07-23T08:38:12;6.33;;;5.00;;
7541;SDS011;3812;50.006;8.230;2022-07-23T08:40:41;4.73;;;4.27;;
7541;SDS011;3812;50.006;8.230;2022-07-23T08:43:14;5.07;;;4.23;;
7541;SDS011;3812;50.006;8.230;2022-07-23T08:45:45;4.50;;;3.90;;
7541;SDS011;3812;50.006;8.230;2022-07-23T08:48:13;6.37;;;4.63;;
7541;SDS011;3812;50.006;8.230;2022-07-23T08:50:42;6.03;;;4.50;;
7541;SDS011;3812;50.006;8.230;2022-07-23T08:53:10;5.80;;;5.20;;
7541;SDS011;3812;50.006;8.230;2022-07-23T08:55:37;4.97;;;4.37;;
7541;SDS011;3812;50.006;8.230;2022-07-23T08:58:04;5.03;;;4.23;;
7541;SDS011;3812;50.006;8.230;2022-07-23T09:00:32;5.00;;;4.50;;
7541;SDS011;3812;50.006;8.230;2022-07-23T09:03:00;4.83;;;4.40;;
7541;SDS011;3812;50.006;8.230;2022-07-23T09:05:27;4.77;;;3.93;;
7541;SDS011;3812;50.006;8.230;2022-07-23T09:08:07;4.60;;;4.10;;
7541;SDS011;3812;50.006;8.230;2022-07-23T09:10:45;4.97;;;4.13;;
7541;SDS011;3812;50.006;8.230;2022-07-23T09:13:31;5.33;;;4.47;;
7541;SDS011;3812;50.006;8.230;2022-07-23T09:16:01;5.83;;;4.70;;
7541;SDS011;3812;50.006;8.230;2022-07-23T09:18:34;5.50;;;4.00;;
7541;SDS011;3812;50.006;8.230;2022-07-23T09:21:08;5.53;;;3.73;;
7541;SDS011;3812;50.006;8.230;2022-07-23T09:23:36;5.60;;;4.27;;
7541;SDS011;3812;50.006;8.230;2022-07-23T09:26:10;5.00;;;3.90;;
7541;SDS011;3812;50.006;8.230;2022-07-23T09:28:53;4.40;;;4.00;;
7541;SDS011;3812;50.006;8.230;2022-07-23T09:31:22;4.87;;;3.67;;
7541;SDS011;3812;50.006;8.230;2022-07-23T09:33:50;5.50;;;3.93;;
7541;SDS011;3812;50.006;8.230;2022-07-23T09:36:26;4.10;;;3.70;;
7541;SDS011;3812;50.006;8.230;2022-07-23T09:38:54;4.40;;;4.00;;
7541;SDS011;3812;50.006;8.230;2022-07-23T09:41:21;5.93;;;4.10;;
7541;SDS011;3812;50.006;8.230;2022-07-23T09:43:54;5.73;;;4.17;;
7541;SDS011;3812;50.006;8.230;2022-07-23T09:46:23;4.20;;;3.80;;
7541;SDS011;3812;50.006;8.230;2022-07-23T09:48:53;4.10;;;3.70;;
7541;SDS011;3812;50.006;8.230;2022-07-23T09:51:22;4.83;;;4.20;;
7541;SDS011;3812;50.006;8.230;2022-07-23T09:53:56;6.10;;;4.23;;
7541;SDS011;3812;50.006;8.230;2022-07-23T09:56:23;4.40;;;4.00;;
7541;SDS011;3812;50.006;8.230;2022-07-23T09:58:52;5.77;;;3.77;;
7541;SDS011;3812;50.006;8.230;2022-07-23T10:01:28;6.40;;;4.67;;
7541;SDS011;3812;50.006;8.230;2022-07-23T10:03:58;4.50;;;4.10;;
7541;SDS011;3812;50.006;8.230;2022-07-23T10:06:52;4.87;;;4.20;;
7541;SDS011;3812;50.006;8.230;2022-07-23T10:09:39;5.13;;;4.30;;
7541;SDS011;3812;50.006;8.230;2022-07-23T10:12:27;5.73;;;4.40;;
7541;SDS011;3812;50.006;8.230;2022-07-23T10:15:09;6.97;;;4.90;;
7541;SDS011;3812;50.006;8.230;2022-07-23T10:17:36;5.73;;;4.80;;
7541;SDS011;3812;50.006;8.230;2022-07-23T10:20:05;6.30;;;4.20;;
7541;SDS011;3812;50.006;8.230;2022-07-23T10:22:33;6.50;;;4.70;;
7541;SDS011;3812;50.006;8.230;2022-07-23T10:25:08;4.73;;;4.30;;
7541;SDS011;3812;50.006;8.230;2022-07-23T10:30:36;5.03;;;4.53;;
7541;SDS011;3812;50.006;8.230;2022-07-23T10:33:12;6.03;;;4.40;;
7541;SDS011;3812;50.006;8.230;2022-07-23T10:35:48;10.83;;;5.07;;
7541;SDS011;3812;50.006;8.230;2022-07-23T10:38:24;5.00;;;4.50;;
7541;SDS011;3812;50.006;8.230;2022-07-23T10:40:57;5.43;;;4.83;;
7541;SDS011;3812;50.006;8.230;2022-07-23T10:43:25;5.00;;;4.40;;
7541;SDS011;3812;50.006;8.230;2022-07-23T10:45:53;5.00;;;4.50;;
7541;SDS011;3812;50.006;8.230;2022-07-23T10:48:21;5.50;;;4.23;;
7541;SDS011;3812;50.006;8.230;2022-07-23T10:51:06;6.13;;;4.13;;
7541;SDS011;3812;50.006;8.230;2022-07-23T10:53:55;4.97;;;4.47;;
7541;SDS011;3812;50.006;8.230;2022-07-23T10:59:15;5.87;;;4.30;;
7541;SDS011;3812;50.006;8.230;2022-07-23T11:01:43;5.60;;;4.57;;
7541;SDS011;3812;50.006;8.230;2022-07-23T11:04:10;6.03;;;4.70;;
7541;SDS011;3812;50.006;8.230;2022-07-23T11:07:07;4.83;;;4.37;;
7541;SDS011;3812;50.006;8.230;2022-07-23T11:09:38;6.10;;;4.33;;
7541;SDS011;3812;50.006;8.230;2022-07-23T11:15:05;5.63;;;4.00;;
7541;SDS011;3812;50.006;8.230;2022-07-23T11:17:35;5.10;;;4.60;;
7541;SDS011;3812;50.006;8.230;2022-07-23T11:20:12;5.57;;;4.47;;
7541;SDS011;3812;50.006;8.230;2022-07-23T11:22:48;5.17;;;4.57;;
7541;SDS011;3812;50.006;8.230;2022-07-23T11:28:15;5.07;;;4.33;;
7541;SDS011;3812;50.006;8.230;2022-07-23T11:30:46;5.17;;;4.00;;
7541;SDS011;3812;50.006;8.230;2022-07-23T11:33:18;5.03;;;4.23;;
7541;SDS011;3812;50.006;8.230;2022-07-23T11:35:46;4.50;;;4.10;;
7541;SDS011;3812;50.006;8.230;2022-07-23T11:38:17;4.60;;;4.00;;
7541;SDS011;3812;50.006;8.230;2022-07-23T11:40:45;4.80;;;4.20;;
7541;SDS011;3812;50.006;8.230;2022-07-23T11:43:14;6.30;;;4.20;;
7541;SDS011;3812;50.006;8.230;2022-07-23T11:45:41;4.83;;;4.07;;
7541;SDS011;3812;50.006;8.230;2022-07-23T11:48:15;5.07;;;4.33;;
7541;SDS011;3812;50.006;8.230;2022-07-23T11:50:43;5.20;;;3.90;;
7541;SDS011;3812;50.006;8.230;2022-07-23T11:53:10;4.70;;;3.57;;
7541;SDS011;3812;50.006;8.230;2022-07-23T11:55:39;6.38;;;3.90;;
7541;SDS011;3812;50.006;8.230;2022-07-23T11:58:06;6.20;;;3.78;;
7541;SDS011;3812;50.006;8.230;2022-07-23T12:00:33;3.97;;;3.65;;
7541;SDS011;3812;50.006;8.230;2022-07-23T12:03:01;5.78;;;3.90;;
7541;SDS011;3812;50.006;8.230;2022-07-23T12:05:30;4.60;;;3.90;;
7541;SDS011;3812;50.006;8.230;2022-07-23T12:07:59;4.57;;;3.78;;
7541;SDS011;3812;50.006;8.230;2022-07-23T12:10:27;4.15;;;3.67;;
7541;SDS011;3812;50.006;8.230;2022-07-23T12:12:57;4.07;;;3.60;;
7541;SDS011;3812;50.006;8.230;2022-07-23T12:15:26;4.13;;;3.55;;
7541;SDS011;3812;50.006;8.230;2022-07-23T12:17:56;4.60;;;3.65;;
7541;SDS011;3812;50.006;8.230;2022-07-23T12:20:24;5.03;;;4.18;;
7541;SDS011;3812;50.006;8.230;2022-07-23T12:22:53;5.80;;;3.53;;
7541;SDS011;3812;50.006;8.230;2022-07-23T12:25:25;3.53;;;2.80;;
7541;SDS011;3812;50.006;8.230;2022-07-23T12:28:02;4.13;;;3.42;;
7541;SDS011;3812;50.006;8.230;2022-07-23T12:30:31;3.55;;;3.25;;
7541;SDS011;3812;50.006;8.230;2022-07-23T12:33:00;3.58;;;3.13;;
7541;SDS011;3812;50.006;8.230;2022-07-23T12:35:32;4.18;;;3.08;;
7541;SDS011;3812;50.006;8.230;2022-07-23T12:38:02;4.15;;;3.78;;
7541;SDS011;3812;50.006;8.230;2022-07-23T12:40:31;5.07;;;3.60;;
7541;SDS011;3812;50.006;8.230;2022-07-23T12:43:01;4.63;;;3.28;;
7541;SDS011;3812;50.006;8.230;2022-07-23T12:45:41;4.25;;;3.78;;
7541;SDS011;3812;50.006;8.230;2022-07-23T12:48:14;4.20;;;3.53;;
7541;SDS011;3812;50.006;8.230;2022-07-23T12:50:43;3.70;;;3.40;;
7541;SDS011;3812;50.006;8.230;2022-07-23T12:53:11;3.90;;;3.60;;
7541;SDS011;3812;50.006;8.230;2022-07-23T12:55:39;4.85;;;3.90;;
7541;SDS011;3812;50.006;8.230;2022-07-23T12:58:09;5.00;;;3.60;;
7541;SDS011;3812;50.006;8.230;2022-07-23T13:00:50;4.13;;;3.72;;
7541;SDS011;3812;50.006;8.230;2022-07-23T13:03:22;5.35;;;4.25;;
7541;SDS011;3812;50.006;8.230;2022-07-23T13:05:49;4.25;;;3.85;;
7541;SDS011;3812;50.006;8.230;2022-07-23T13:08:16;4.85;;;3.90;;
7541;SDS011;3812;50.006;8.230;2022-07-23T13:10:44;5.88;;;3.97;;
7541;SDS011;3812;50.006;8.230;2022-07-23T13:13:14;4.85;;;4.20;;
7541;SDS011;3812;50.006;8.230;2022-07-23T13:15:42;5.72;;;4.20;;
7541;SDS011;3812;50.006;8.230;2022-07-23T13:18:09;4.25;;;3.85;;
7541;SDS011;3812;50.006;8.230;2022-07-23T13:20:36;4.85;;;4.18;;
7541;SDS011;3812;50.006;8.230;2022-07-23T13:23:04;4.57;;;3.72;;
7541;SDS011;3812;50.006;8.230;2022-07-23T13:25:32;4.97;;;4.20;;
7541;SDS011;3812;50.006;8.230;2022-07-23T13:27:59;4.40;;;3.80;;
7541;SDS011;3812;50.006;8.230;2022-07-23T13:30:28;4.65;;;4.25;;
7541;SDS011;3812;50.006;8.230;2022-07-23T13:32:55;4.03;;;3.70;;
7541;SDS011;3812;50.006;8.230;2022-07-23T13:35:22;4.63;;;4.22;;
7541;SDS011;3812;50.006;8.230;2022-07-23T13:37:49;4.22;;;3.83;;
7541;SDS011;3812;50.006;8.230;2022-07-23T13:40:17;4.28;;;3.67;;
7541;SDS011;3812;50.006;8.230;2022-07-23T13:42:44;5.82;;;4.28;;
7541;SDS011;3812;50.006;8.230;2022-07-23T13:45:11;4.55;;;4.03;;
7541;SDS011;3812;50.006;8.230;2022-07-23T13:47:40;5.18;;;4.60;;
7541;SDS011;3812;50.006;8.230;2022-07-23T13:50:07;4.00;;;3.70;;
7541;SDS011;3812;50.006;8.230;2022-07-23T13:52:34;4.90;;;4.10;;
7541;SDS011;3812;50.006;8.230;2022-07-23T13:55:02;3.78;;;3.47;;
7541;SDS011;3812;50.006;8.230;2022-07-23T13:57:30;4.15;;;3.70;;
7541;SDS011;3812;50.006;8.230;2022-07-23T13:59:57;4.97;;;3.75;;
7541;SDS011;3812;50.006;8.230;2022-07-23T14:02:25;4.25;;;3.85;;
7541;SDS011;3812;50.006;8.230;2022-07-23T14:04:53;5.07;;;4.07;;
7541;SDS011;3812;50.006;8.230;2022-07-23T14:07:22;4.38;;;3.97;;
7541;SDS011;3812;50.006;8.230;2022-07-23T14:09:49;4.53;;;4.00;;
7541;SDS011;3812;50.006;8.230;2022-07-23T14:12:16;4.57;;;4.18;;
7541;SDS011;3812;50.006;8.230;2022-07-23T14:14:43;4.05;;;3.70;;
7541;SDS011;3812;50.006;8.230;2022-07-23T14:17:11;4.68;;;3.80;;
7541;SDS011;3812;50.006;8.230;2022-07-23T14:19:38;4.10;;;3.70;;
7541;SDS011;3812;50.006;8.230;2022-07-23T14:22:07;4.68;;;3.67;;
7541;SDS011;3812;50.006;8.230;2022-07-23T14:24:34;4.82;;;4.35;;
7541;SDS011;3812;50.006;8.230;2022-07-23T14:27:01;4.68;;;4.13;;
7541;SDS011;3812;50.006;8.230;2022-07-23T14:29:29;6.72;;;4.60;;
7541;SDS011;3812;50.006;8.230;2022-07-23T14:31:57;4.32;;;3.90;;
7541;SDS011;3812;50.006;8.230;2022-07-23T14:34:24;4.72;;;3.97;;
7541;SDS011;3812;50.006;8.230;2022-07-23T14:36:51;4.60;;;4.10;;
7541;SDS011;3812;50.006;8.230;2022-07-23T14:39:20;4.15;;;3.75;;
7541;SDS011;3812;50.006;8.230;2022-07-23T14:41:47;3.90;;;3.60;;
7541;SDS011;3812;50.006;8.230;2022-07-23T14:44:15;4.82;;;3.63;;
7541;SDS011;3812;50.006;8.230;2022-07-23T14:46:42;4.78;;;3.33;;
7541;SDS011;3812;50.006;8.230;2022-07-23T14:49:09;3.63;;;3.33;;
7541;SDS011;3812;50.006;8.230;2022-07-23T14:51:37;3.63;;;3.33;;
7541;SDS011;3812;50.006;8.230;2022-07-23T14:54:04;4.05;;;3.55;;
7541;SDS011;3812;50.006;8.230;2022-07-23T14:56:33;4.95;;;3.47;;
7541;SDS011;3812;50.006;8.230;2022-07-23T14:59:01;3.75;;;3.45;;
7541;SDS011;3812;50.006;8.230;2022-07-23T15:01:28;3.67;;;3.35;;
7541;SDS011;3812;50.006;8.230;2022-07-23T15:03:56;4.43;;;3.53;;
7541;SDS011;3812;50.006;8.230;2022-07-23T15:06:23;5.95;;;3.33;;
7541;SDS011;3812;50.006;8.230;2022-07-23T15:08:50;3.42;;;3.10;;
7541;SDS011;3812;50.006;8.230;2022-07-23T15:11:18;5.05;;;3.10;;
7541;SDS011;3812;50.006;8.230;2022-07-23T15:13:46;3.50;;;3.20;;
7541;SDS011;3812;50.006;8.230;2022-07-23T15:16:14;3.20;;;2.90;;
7541;SDS011;3812;50.006;8.230;2022-07-23T15:18:41;4.07;;;3.35;;
7541;SDS011;3812;50.006;8.230;2022-07-23T15:21:08;3.38;;;2.88;;
7541;SDS011;3812;50.006;8.230;2022-07-23T15:23:35;3.63;;;3.00;;
7541;SDS011;3812;50.006;8.230;2022-07-23T15:26:04;4.00;;;2.80;;
7541;SDS011;3812;50.006;8.230;2022-07-23T15:28:32;3.40;;;3.10;;
7541;SDS011;3812;50.006;8.230;2022-07-23T15:31:00;3.53;;;3.20;;
7541;SDS011;3812;50.006;8.230;2022-07-23T15:33:28;3.83;;;3.38;;